createdAt,value
2024-01-30T00:02:10.001Z,15.77
2024-01-30T00:05:12.759Z,16.20
2024-01-30T00:08:15.398Z,16.00
2024-01-30T00:11:18.010Z,16.02
2024-01-30T00:14:20.655Z,16.23
2024-01-30T00:17:23.341Z,15.48
2024-01-30T00:20:26.006Z,17.10
2024-01-30T00:23:28.531Z,15.57
2024-01-30T00:26:31.143Z,14.50
2024-01-30T00:29:35.108Z,16.50
2024-01-30T00:32:38.019Z,15.07
2024-01-30T00:35:40.639Z,14.27
2024-01-30T00:38:43.355Z,15.20
2024-01-30T00:41:45.986Z,15.55
2024-01-30T00:44:48.562Z,15.00
2024-01-30T00:47:51.156Z,14.45
2024-01-30T00:50:53.830Z,14.95
2024-01-30T00:53:56.730Z,15.47
2024-01-30T00:56:59.288Z,14.07
2024-01-30T01:00:01.920Z,13.95
2024-01-30T01:03:04.670Z,12.80
2024-01-30T01:06:07.324Z,14.27
2024-01-30T01:09:09.813Z,13.38
2024-01-30T01:12:12.348Z,13.70
2024-01-30T01:15:14.900Z,13.93
2024-01-30T01:18:17.587Z,14.00
2024-01-30T01:21:20.067Z,12.43
2024-01-30T01:24:22.646Z,12.23
2024-01-30T01:27:25.164Z,13.07
2024-01-30T01:30:27.860Z,13.48
2024-01-30T01:33:30.447Z,12.63
2024-01-30T01:36:33.039Z,12.65
2024-01-30T01:39:35.598Z,13.30
2024-01-30T01:42:38.460Z,12.95
2024-01-30T01:45:41.126Z,12.98
2024-01-30T01:48:44.588Z,12.95
2024-01-30T01:51:49.420Z,12.35
2024-01-30T01:54:52.144Z,12.63
2024-01-30T01:57:55.309Z,13.40
2024-01-30T02:01:00.108Z,12.30
2024-01-30T02:04:02.684Z,12.27
2024-01-30T02:07:05.493Z,13.85
2024-01-30T02:10:10.585Z,12.43
2024-01-30T02:13:13.323Z,12.05
2024-01-30T02:16:16.012Z,12.02
2024-01-30T02:19:18.651Z,11.95
2024-01-30T02:22:22.737Z,12.70
2024-01-30T02:25:35.207Z,12.77
2024-01-30T02:28:37.870Z,13.02
2024-01-30T02:31:40.389Z,13.63
2024-01-30T02:34:43.341Z,12.57
2024-01-30T02:37:46.018Z,12.02
2024-01-30T02:40:48.513Z,11.45
2024-01-30T02:43:51.158Z,12.45
2024-01-30T02:46:55.414Z,12.02
2024-01-30T02:49:58.087Z,12.23
2024-01-30T02:53:00.796Z,12.05
2024-01-30T02:56:04.183Z,11.10
2024-01-30T02:59:06.773Z,11.25
2024-01-30T03:02:09.432Z,11.60
2024-01-30T03:05:12.097Z,12.03
2024-01-30T03:08:14.805Z,11.38
2024-01-30T03:11:17.430Z,11.02
2024-01-30T03:14:20.011Z,10.18
2024-01-30T03:17:22.836Z,11.77
2024-01-30T03:20:25.469Z,10.50
2024-01-30T03:23:28.019Z,11.70
2024-01-30T03:26:30.590Z,11.17
2024-01-30T03:29:33.085Z,10.00
2024-01-30T03:32:35.743Z,11.73
2024-01-30T03:35:38.292Z,10.77
2024-01-30T03:38:40.766Z,9.85
2024-01-30T03:41:44.631Z,13.20
2024-01-30T03:44:47.329Z,12.32
2024-01-30T03:47:50.529Z,11.35
2024-01-30T03:50:53.076Z,13.27
2024-01-30T03:53:55.681Z,11.90
2024-01-30T03:56:58.153Z,11.50
2024-01-30T04:00:03.281Z,12.52
2024-01-30T04:03:16.830Z,11.38
2024-01-30T04:06:19.565Z,12.80
2024-01-30T04:09:22.060Z,12.23
2024-01-30T04:12:24.508Z,12.55
2024-01-30T04:15:27.404Z,13.32
2024-01-30T04:18:30.542Z,11.50
2024-01-30T04:21:33.046Z,13.68
2024-01-30T04:24:35.710Z,12.55
2024-01-30T04:27:38.456Z,12.30
2024-01-30T04:30:41.150Z,12.57
2024-01-30T04:33:43.853Z,13.20
2024-01-30T04:36:47.257Z,11.83
2024-01-30T04:39:49.862Z,12.85
2024-01-30T04:42:52.526Z,12.43
2024-01-30T04:45:55.169Z,13.15
2024-01-30T04:48:57.844Z,11.93
2024-01-30T04:52:00.455Z,12.35
2024-01-30T04:55:03.171Z,12.10
2024-01-30T04:58:05.851Z,12.97
2024-01-30T05:01:08.574Z,13.88
2024-01-30T05:04:15.804Z,13.55
2024-01-30T05:07:19.793Z,14.47
2024-01-30T05:10:22.423Z,17.70
2024-01-30T05:13:25.048Z,18.17
2024-01-30T05:16:27.735Z,17.58
2024-01-30T05:19:30.454Z,19.73
2024-01-30T05:22:33.046Z,17.00
2024-01-30T05:25:35.674Z,16.02
2024-01-30T05:28:38.896Z,16.80
2024-01-30T05:31:41.485Z,15.50
2024-01-30T05:34:44.076Z,17.13
2024-01-30T05:37:46.662Z,16.23
2024-01-30T05:40:49.193Z,16.48
2024-01-30T05:43:51.732Z,15.23
2024-01-30T05:46:54.622Z,15.68
2024-01-30T05:49:57.375Z,16.05
2024-01-30T05:52:59.978Z,15.95
2024-01-30T05:56:03.553Z,15.88
2024-01-30T05:59:06.084Z,15.30
2024-01-30T06:02:08.732Z,17.42
2024-01-30T06:05:11.562Z,16.90
2024-01-30T06:08:14.055Z,17.10
2024-01-30T06:11:16.649Z,16.17
2024-01-30T06:14:19.210Z,14.88
2024-01-30T06:17:21.742Z,15.90
2024-01-30T06:20:24.406Z,17.42
2024-01-30T06:23:26.979Z,15.63
2024-01-30T06:26:29.592Z,16.08
2024-01-30T06:29:32.169Z,16.87
2024-01-30T06:32:35.713Z,15.68
2024-01-30T06:35:44.591Z,16.35
2024-01-30T06:38:47.606Z,16.00
2024-01-30T06:41:50.558Z,17.48
2024-01-30T06:44:53.231Z,17.17
2024-01-30T06:47:55.765Z,17.58
2024-01-30T06:50:59.156Z,19.88
2024-01-30T06:54:01.755Z,20.67
2024-01-30T06:57:04.590Z,21.13
2024-01-30T07:00:07.713Z,19.33
2024-01-30T07:03:10.314Z,19.27
2024-01-30T07:06:13.218Z,19.63
2024-01-30T07:09:15.885Z,19.90
2024-01-30T07:12:21.172Z,20.50
2024-01-30T07:15:23.807Z,19.33
2024-01-30T07:18:26.455Z,20.55
2024-01-30T07:21:29.692Z,20.83
2024-01-30T07:24:32.466Z,20.55
2024-01-30T07:27:35.033Z,22.02
2024-01-30T07:30:37.793Z,20.43
2024-01-30T07:33:40.509Z,22.17
2024-01-30T07:36:43.204Z,19.83
2024-01-30T07:39:46.069Z,19.27
2024-01-30T07:42:50.645Z,19.63
2024-01-30T07:45:53.344Z,19.83
2024-01-30T07:48:57.058Z,19.13
2024-01-30T07:51:59.834Z,18.92
2024-01-30T07:55:05.185Z,18.45
2024-01-30T07:58:08.062Z,18.90
2024-01-30T08:01:10.933Z,20.67
2024-01-30T08:04:13.930Z,20.33
2024-01-30T08:07:16.966Z,19.58
2024-01-30T08:10:20.187Z,19.07
2024-01-30T08:13:23.536Z,18.50
2024-01-30T08:16:26.367Z,19.52
2024-01-30T08:19:29.180Z,18.60
2024-01-30T08:22:32.191Z,17.07
2024-01-30T08:25:34.875Z,18.30
2024-01-30T08:28:37.544Z,17.00
2024-01-30T08:31:40.375Z,19.03
2024-01-30T08:34:43.457Z,18.48
2024-01-30T08:37:46.337Z,17.90
2024-01-30T08:40:48.957Z,18.30
2024-01-30T08:43:51.616Z,19.38
2024-01-30T08:46:55.225Z,20.35
2024-01-30T08:49:59.043Z,19.73
2024-01-30T08:53:02.150Z,19.73
2024-01-30T08:56:05.361Z,19.47
2024-01-30T08:59:09.410Z,20.27
2024-01-30T09:02:17.505Z,20.20
2024-01-30T09:05:20.280Z,20.37
2024-01-30T09:08:22.974Z,18.90
2024-01-30T09:11:25.745Z,15.45
2024-01-30T09:14:29.904Z,15.35
2024-01-30T09:17:36.601Z,12.32
2024-01-30T09:20:39.318Z,13.00
2024-01-30T09:23:41.842Z,12.50
2024-01-30T09:26:44.476Z,14.80
2024-01-30T09:29:47.104Z,13.25
2024-01-30T09:32:49.847Z,11.32
2024-01-30T09:35:52.573Z,16.52
2024-01-30T09:38:55.781Z,17.17
2024-01-30T09:42:13.098Z,16.63
2024-01-30T09:45:15.941Z,16.80
2024-01-30T09:48:18.668Z,15.37
2024-01-30T09:51:23.389Z,16.03
2024-01-30T09:54:26.047Z,16.65
2024-01-30T09:57:31.593Z,15.23
2024-01-30T10:00:34.217Z,15.87
2024-01-30T10:03:39.862Z,16.30
2024-01-30T10:06:43.584Z,17.17
2024-01-30T10:09:46.978Z,15.10
2024-01-30T10:12:50.052Z,13.20
2024-01-30T10:15:56.504Z,15.00
2024-01-30T10:18:59.292Z,15.88
2024-01-30T10:22:02.012Z,14.82
2024-01-30T10:25:07.811Z,14.97
2024-01-30T10:28:10.730Z,13.80
2024-01-30T10:31:19.977Z,15.30
2024-01-30T10:37:27.463Z,14.20
2024-01-30T10:40:33.333Z,13.80
2024-01-30T10:43:43.653Z,14.03
2024-01-30T10:46:53.074Z,13.73
2024-01-30T10:49:57.389Z,13.23
2024-01-30T10:53:01.428Z,13.07
2024-01-30T10:56:05.709Z,13.97
2024-01-30T10:59:11.977Z,14.88
2024-01-30T11:02:16.037Z,15.70
2024-01-30T11:05:32.875Z,15.15
2024-01-30T11:08:36.747Z,15.77
2024-01-30T11:12:02.472Z,13.27
2024-01-30T11:15:16.040Z,11.55
2024-01-30T11:18:26.673Z,15.27
2024-01-30T11:21:29.579Z,14.15
2024-01-30T11:24:43.409Z,13.13
2024-01-30T11:27:47.161Z,13.75
2024-01-30T11:30:52.017Z,15.60
2024-01-30T11:33:55.569Z,13.15
2024-01-30T11:37:00.546Z,13.23
2024-01-30T11:40:05.300Z,12.07
2024-01-30T11:43:10.263Z,9.48
2024-01-30T11:46:13.473Z,11.73
2024-01-30T11:49:18.656Z,11.55
2024-01-30T11:52:21.398Z,11.13
2024-01-30T11:55:25.445Z,12.63
2024-01-30T11:58:28.399Z,13.20
2024-01-30T12:01:33.574Z,11.57
2024-01-30T12:04:36.605Z,10.82
2024-01-30T12:07:39.465Z,10.57
2024-01-30T12:10:43.001Z,8.87
2024-01-30T12:13:46.205Z,10.77
2024-01-30T12:16:52.195Z,10.93
2024-01-30T12:20:08.132Z,9.48
2024-01-30T12:23:13.333Z,10.88
2024-01-30T12:26:16.362Z,10.10
2024-01-30T12:29:18.977Z,10.10
2024-01-30T12:32:24.029Z,8.52
2024-01-30T12:35:28.502Z,8.48
2024-01-30T12:38:31.956Z,7.22
2024-01-30T12:41:34.592Z,7.83
2024-01-30T12:44:37.200Z,7.00
2024-01-30T12:47:40.093Z,5.55
2024-01-30T12:50:43.380Z,5.47
2024-01-30T12:53:47.867Z,6.47
2024-01-30T12:56:50.648Z,6.40
2024-01-30T12:59:53.215Z,5.90
2024-01-30T13:02:56.011Z,6.55
2024-01-30T13:05:58.808Z,6.38
2024-01-30T13:09:01.645Z,6.57
2024-01-30T13:12:04.846Z,5.33
2024-01-30T13:15:07.719Z,6.60
2024-01-30T13:18:10.435Z,6.30
2024-01-30T13:21:13.007Z,4.80
2024-01-30T13:24:15.837Z,5.88
2024-01-30T13:27:18.971Z,6.87
2024-01-30T13:30:31.447Z,5.80
2024-01-30T13:33:34.587Z,3.67
2024-01-30T13:36:37.459Z,6.32
2024-01-30T13:39:42.596Z,5.65
2024-01-30T13:42:45.506Z,5.20
2024-01-30T13:45:50.591Z,5.95
2024-01-30T13:48:53.933Z,5.63
2024-01-30T13:52:00.289Z,5.05
2024-01-30T13:55:03.488Z,5.55
2024-01-30T13:58:06.314Z,7.03
2024-01-30T14:01:09.037Z,6.78
2024-01-30T14:04:13.880Z,5.78
2024-01-30T14:07:19.644Z,5.78
2024-01-30T14:10:22.366Z,6.38
2024-01-30T14:13:26.442Z,5.90
2024-01-30T14:16:30.141Z,4.88
2024-01-30T14:19:35.964Z,5.00
2024-01-30T14:22:38.603Z,4.30
2024-01-30T14:25:41.427Z,4.63
2024-01-30T14:28:47.424Z,4.80
2024-01-30T14:31:49.932Z,4.10
2024-01-30T14:34:53.819Z,4.28
2024-01-30T14:37:56.441Z,4.53
2024-01-30T14:40:59.262Z,4.68
2024-01-30T14:44:02.655Z,4.33
2024-01-30T14:47:05.828Z,4.40
2024-01-30T14:50:09.410Z,4.15
2024-01-30T14:53:12.561Z,4.13
2024-01-30T14:56:15.318Z,4.28
2024-01-30T14:59:18.152Z,3.83
2024-01-30T15:02:21.060Z,3.97
2024-01-30T15:05:23.879Z,4.18
2024-01-30T15:08:26.720Z,4.75
2024-01-30T15:11:29.282Z,4.75
2024-01-30T15:14:31.860Z,4.27
2024-01-30T15:17:34.658Z,5.03
2024-01-30T15:20:37.252Z,5.85
2024-01-30T15:23:39.968Z,5.35
2024-01-30T15:26:42.820Z,5.78
2024-01-30T15:29:45.424Z,4.97
2024-01-30T15:32:49.042Z,8.40
2024-01-30T15:35:51.676Z,9.30
2024-01-30T15:38:54.271Z,8.93
2024-01-30T15:41:56.851Z,10.50
2024-01-30T15:45:00.010Z,10.07
2024-01-30T15:48:02.560Z,9.15
2024-01-30T15:51:05.658Z,9.13
2024-01-30T15:54:08.348Z,8.80
2024-01-30T15:57:11.361Z,7.63
2024-01-30T16:00:15.061Z,8.90
2024-01-30T16:03:18.368Z,9.43
2024-01-30T16:06:21.384Z,10.25
2024-01-30T16:09:25.122Z,10.73
2024-01-30T16:12:28.657Z,11.23
2024-01-30T16:15:31.222Z,12.48
2024-01-30T16:18:34.506Z,13.50
2024-01-30T16:21:39.739Z,14.30
2024-01-30T16:24:42.569Z,16.80
2024-01-30T16:27:45.195Z,15.50
2024-01-30T16:30:47.858Z,16.38
2024-01-30T16:33:50.842Z,16.43
2024-01-30T16:36:53.626Z,16.70
2024-01-30T16:39:56.351Z,18.77
2024-01-30T16:42:58.984Z,22.23
2024-01-30T16:46:01.736Z,21.55
2024-01-30T16:49:04.639Z,25.25
2024-01-30T16:52:08.702Z,24.02
2024-01-30T16:55:11.336Z,24.47
2024-01-30T16:58:13.939Z,27.67
2024-01-30T17:01:16.717Z,42.45
2024-01-30T17:04:23.517Z,55.00
2024-01-30T17:07:26.721Z,55.17
2024-01-30T17:10:29.755Z,51.85
2024-01-30T17:13:32.439Z,49.55
2024-01-30T17:16:35.622Z,48.77
2024-01-30T17:19:38.867Z,39.35
2024-01-30T17:22:45.183Z,36.22
2024-01-30T17:25:51.034Z,33.87
2024-01-30T17:28:53.922Z,33.95
2024-01-30T17:31:56.779Z,36.72
2024-01-30T17:34:59.418Z,36.00
2024-01-30T17:38:05.408Z,44.58
2024-01-30T17:41:12.596Z,39.42
2024-01-30T17:44:16.826Z,36.42
2024-01-30T17:47:19.655Z,33.50
2024-01-30T17:50:22.485Z,32.78
2024-01-30T17:53:25.247Z,30.88
2024-01-30T17:56:28.421Z,31.67
2024-01-30T17:59:31.090Z,35.03
2024-01-30T18:02:34.117Z,34.35
2024-01-30T18:05:37.156Z,26.60
2024-01-30T18:08:40.340Z,30.52
2024-01-30T18:11:42.890Z,26.52
2024-01-30T18:14:45.900Z,23.67
2024-01-30T18:17:48.702Z,21.10
2024-01-30T18:20:51.474Z,22.83
2024-01-30T18:23:54.044Z,24.00
2024-01-30T18:26:57.155Z,24.13
2024-01-30T18:30:00.320Z,23.00
2024-01-30T18:33:04.119Z,22.98
2024-01-30T18:36:08.673Z,24.50
2024-01-30T18:39:11.758Z,25.73
2024-01-30T18:42:14.581Z,27.98
2024-01-30T18:45:17.348Z,30.15
2024-01-30T18:48:20.177Z,37.53
2024-01-30T18:51:23.093Z,30.65
2024-01-30T18:54:26.519Z,30.40
2024-01-30T18:57:29.611Z,27.67
2024-01-30T19:00:34.568Z,26.27
2024-01-30T19:03:37.320Z,29.10
2024-01-30T19:06:40.409Z,30.92
2024-01-30T19:09:43.386Z,34.70
2024-01-30T19:12:46.638Z,41.85
2024-01-30T19:15:49.523Z,38.13
2024-01-30T19:18:52.993Z,38.07
2024-01-30T19:21:55.729Z,38.90
2024-01-30T19:24:58.390Z,41.13
2024-01-30T19:28:01.378Z,40.33
2024-01-30T19:31:04.568Z,40.28
2024-01-30T19:34:07.526Z,39.00
2024-01-30T19:37:10.380Z,37.92
2024-01-30T19:40:13.430Z,35.80
2024-01-30T19:43:16.409Z,40.50
2024-01-30T19:46:19.308Z,36.00
2024-01-30T19:49:22.013Z,38.13
2024-01-30T19:52:25.007Z,37.95
2024-01-30T19:55:27.888Z,36.65
2024-01-30T19:58:30.709Z,39.73
2024-01-30T20:01:35.491Z,53.50
2024-01-30T20:04:38.507Z,47.88
2024-01-30T20:07:41.370Z,37.50
2024-01-30T20:10:44.855Z,35.80
2024-01-30T20:13:48.149Z,38.30
2024-01-30T20:16:51.263Z,33.33
2024-01-30T20:19:54.524Z,34.90
2024-01-30T20:22:57.539Z,34.40
2024-01-30T20:26:01.382Z,33.03
2024-01-30T20:29:04.322Z,34.13
2024-01-30T20:32:07.368Z,33.83
2024-01-30T20:35:10.028Z,35.28
2024-01-30T20:38:12.684Z,39.38
2024-01-30T20:41:16.190Z,40.10
2024-01-30T20:44:20.893Z,37.22
2024-01-30T20:47:23.933Z,33.15
2024-01-30T20:50:26.591Z,33.33
2024-01-30T20:53:29.680Z,36.88
2024-01-30T20:56:32.493Z,36.00
2024-01-30T20:59:35.080Z,33.83
2024-01-30T21:02:38.532Z,35.60
2024-01-30T21:05:43.243Z,37.35
2024-01-30T21:08:46.168Z,37.17
2024-01-30T21:11:49.081Z,37.75
2024-01-30T21:14:52.475Z,36.90
2024-01-30T21:17:55.383Z,37.55
2024-01-30T21:20:59.274Z,38.83
2024-01-30T21:24:02.121Z,37.35
2024-01-30T21:27:04.777Z,36.72
2024-01-30T21:30:08.274Z,36.63
2024-01-30T21:33:10.897Z,39.20
2024-01-30T21:36:13.437Z,38.88
2024-01-30T21:39:15.937Z,40.08
2024-01-30T21:42:19.549Z,37.20
2024-01-30T21:45:24.198Z,36.72
2024-01-30T21:48:26.676Z,34.90
2024-01-30T21:51:29.623Z,35.40
2024-01-30T21:54:32.665Z,37.67
2024-01-30T21:57:35.319Z,37.83
2024-01-30T22:00:37.854Z,36.70
2024-01-30T22:03:42.304Z,35.40
2024-01-30T22:06:45.421Z,34.95
2024-01-30T22:09:47.997Z,34.15
2024-01-30T22:12:50.641Z,32.97
2024-01-30T22:15:53.278Z,37.63
2024-01-30T22:18:56.097Z,38.05
2024-01-30T22:21:58.752Z,35.97
2024-01-30T22:25:01.529Z,34.85
2024-01-30T22:28:04.624Z,34.10
2024-01-30T22:31:07.282Z,33.20
2024-01-30T22:34:09.876Z,38.72
2024-01-30T22:37:12.521Z,32.92
2024-01-30T22:40:15.275Z,32.90
2024-01-30T22:43:17.861Z,32.55
2024-01-30T22:46:21.177Z,31.10
2024-01-30T22:49:24.006Z,34.03
2024-01-30T22:52:26.873Z,31.17
2024-01-30T22:55:29.605Z,31.95
2024-01-30T22:58:32.402Z,29.42
2024-01-30T23:01:35.161Z,31.13
2024-01-30T23:04:37.980Z,28.23
2024-01-30T23:07:41.845Z,27.88
2024-01-30T23:10:44.536Z,28.73
2024-01-30T23:13:47.095Z,28.30
2024-01-30T23:16:49.629Z,28.27
2024-01-30T23:19:52.177Z,28.65
2024-01-30T23:22:54.723Z,26.60
2024-01-30T23:25:57.283Z,29.20
2024-01-30T23:28:59.885Z,27.63
2024-01-30T23:32:02.368Z,27.00
2024-01-30T23:35:05.967Z,27.02
2024-01-30T23:38:08.720Z,28.80
2024-01-30T23:41:11.229Z,29.17
2024-01-30T23:44:13.886Z,28.77
2024-01-30T23:47:16.380Z,28.55
2024-01-30T23:50:18.972Z,26.80
2024-01-30T23:53:21.524Z,28.80
2024-01-30T23:56:24.159Z,27.48
2024-01-30T23:59:26.706Z,26.30
